Time;durP1;ratioP1;P1;durP2;ratioP2;P2;SDS_P1;SDS_P2;PMS_P1;PMS_P2;Temp;Humidity;BMP_temperature;BMP_pressure;BME280_temperature;BME280_humidity;BME280_pressure;Samples;Min_cycle;Max_cycle;Signal;HPM_P1;HPM_P2
2022/03/09 00:00:57;;;;;;;7.70;4.45;;;7.10;99.90;;;;;;5050609;28;20653;-52
2022/03/09 00:03:23;;;;;;;7.63;4.87;;;7.10;99.90;;;;;;5049704;28;20768;-60
2022/03/09 00:05:49;;;;;;;6.53;4.27;;;7.00;99.90;;;;;;5052168;28;20629;-54
2022/03/09 00:08:14;;;;;;;6.22;4.43;;;7.00;99.90;;;;;;5071456;28;20486;-54
2022/03/09 00:10:40;;;;;;;7.55;4.63;;;7.00;99.90;;;;;;5070355;28;20396;-54
2022/03/09 00:13:05;;;;;;;6.17;4.53;;;7.00;99.90;;;;;;5052710;28;20387;-54
2022/03/09 00:15:31;;;;;;;6.07;4.60;;;7.00;99.90;;;;;;5071850;28;20771;-53
2022/03/09 00:17:56;;;;;;;7.20;4.40;;;7.00;99.90;;;;;;5072079;28;20395;-53
2022/03/09 00:20:22;;;;;;;6.05;4.22;;;7.00;99.90;;;;;;5054888;28;20470;-56
2022/03/09 00:22:47;;;;;;;6.97;4.60;;;6.90;99.90;;;;;;5054355;28;20641;-52
2022/03/09 00:25:13;;;;;;;5.83;4.50;;;6.90;99.90;;;;;;5053384;28;20742;-53
2022/03/09 00:27:39;;;;;;;7.18;4.10;;;6.90;99.90;;;;;;5053872;28;20467;-56
2022/03/09 00:30:05;;;;;;;5.17;4.10;;;6.80;99.90;;;;;;5053593;28;20684;-53
2022/03/09 00:32:31;;;;;;;7.77;4.70;;;6.80;99.90;;;;;;5053042;28;20494;-56
2022/03/09 00:34:57;;;;;;;7.40;4.57;;;6.80;99.90;;;;;;5070593;28;20395;-55
2022/03/09 00:37:22;;;;;;;7.13;4.40;;;6.70;99.90;;;;;;5050950;28;20457;-54
2022/03/09 00:39:48;;;;;;;6.60;4.40;;;6.60;99.90;;;;;;5050627;28;20403;-55
2022/03/09 00:42:14;;;;;;;5.80;4.60;;;6.60;99.90;;;;;;5068605;28;20396;-54
2022/03/09 00:44:39;;;;;;;6.80;4.53;;;6.60;99.90;;;;;;5049904;28;20691;-54
2022/03/09 00:47:05;;;;;;;6.50;4.50;;;6.50;99.90;;;;;;5049721;28;20424;-53
2022/03/09 00:49:30;;;;;;;6.13;4.65;;;6.40;99.90;;;;;;5050172;28;20391;-56
2022/03/09 00:51:56;;;;;;;5.57;4.17;;;6.30;99.90;;;;;;5052091;28;20430;-54
2022/03/09 00:54:21;;;;;;;6.13;4.57;;;6.30;99.90;;;;;;5070316;28;20513;-53
2022/03/09 00:56:47;;;;;;;5.55;4.40;;;6.30;99.90;;;;;;5053139;28;20399;-55
2022/03/09 00:59:12;;;;;;;7.20;4.80;;;6.30;99.90;;;;;;5053423;28;20388;-55
2022/03/09 01:01:38;;;;;;;6.13;4.67;;;6.40;99.90;;;;;;5051647;28;20388;-50
2022/03/09 01:04:04;;;;;;;7.30;4.75;;;6.30;99.90;;;;;;5051862;28;21091;-56
2022/03/09 01:06:29;;;;;;;9.02;5.20;;;6.30;99.90;;;;;;5048922;28;20396;-54
2022/03/09 01:08:57;;;;;;;8.13;5.30;;;6.30;99.90;;;;;;5049655;28;20387;-54
2022/03/09 01:11:23;;;;;;;11.13;6.23;;;6.30;99.90;;;;;;5053131;28;20682;-56
2022/03/09 01:13:48;;;;;;;9.67;5.73;;;6.30;99.90;;;;;;5054091;28;20384;-55
2022/03/09 01:16:13;;;;;;;9.07;5.83;;;6.20;99.90;;;;;;5054511;28;20698;-53
2022/03/09 01:18:39;;;;;;;8.05;5.70;;;6.30;99.90;;;;;;5054785;28;20478;-52
2022/03/09 01:21:04;;;;;;;8.70;5.57;;;6.30;99.90;;;;;;5054241;28;20403;-55
2022/03/09 01:23:30;;;;;;;7.85;5.38;;;6.30;99.90;;;;;;5055721;28;20401;-54
2022/03/09 01:25:56;;;;;;;9.00;5.95;;;6.20;99.90;;;;;;5056015;28;20453;-54
2022/03/09 01:28:21;;;;;;;9.33;5.67;;;6.20;99.90;;;;;;5072937;28;20412;-56
2022/03/09 01:30:47;;;;;;;9.43;5.60;;;6.10;99.90;;;;;;5071993;28;20387;-54
2022/03/09 01:33:12;;;;;;;10.00;5.67;;;6.10;99.90;;;;;;5072062;28;20407;-55
2022/03/09 01:35:38;;;;;;;8.73;5.85;;;6.10;99.90;;;;;;5055685;28;20380;-56
2022/03/09 01:38:04;;;;;;;7.93;5.53;;;6.00;99.90;;;;;;5055161;28;20395;-55
2022/03/09 01:40:29;;;;;;;8.53;5.30;;;5.90;99.90;;;;;;5053236;28;20443;-56
2022/03/09 01:42:55;;;;;;;7.93;5.03;;;5.90;99.90;;;;;;5053261;28;20406;-56
2022/03/09 01:45:21;;;;;;;10.52;5.47;;;5.90;99.90;;;;;;5050590;28;20729;-52
2022/03/09 01:47:47;;;;;;;8.20;5.10;;;5.90;99.90;;;;;;5052966;28;20698;-55
2022/03/09 01:50:13;;;;;;;10.80;5.70;;;5.90;99.90;;;;;;5052274;28;20390;-56
2022/03/09 01:52:41;;;;;;;9.67;5.20;;;5.80;99.90;;;;;;5072377;28;20387;-56
2022/03/09 01:55:07;;;;;;;8.48;4.85;;;5.80;99.90;;;;;;5054052;28;20460;-55
2022/03/09 01:57:33;;;;;;;7.43;5.40;;;5.80;99.90;;;;;;5058621;28;20435;-54
2022/03/09 01:59:59;;;;;;;8.50;5.00;;;5.70;99.90;;;;;;5075526;28;20730;-54
2022/03/09 02:02:25;;;;;;;8.52;4.88;;;5.80;99.90;;;;;;5057222;28;20787;-55
2022/03/09 02:04:50;;;;;;;8.20;5.00;;;5.70;99.90;;;;;;5058844;28;20386;-55
2022/03/09 02:07:16;;;;;;;6.93;4.95;;;5.60;99.90;;;;;;5058211;28;20395;-54
2022/03/09 02:09:42;;;;;;;6.65;5.10;;;5.60;99.90;;;;;;5060044;28;20387;-53
2022/03/09 02:12:18;;;;;;;8.60;5.10;;;5.50;99.90;;;;;;5076952;28;20449;-55
2022/03/09 02:14:49;;;;;;;7.47;5.10;;;5.50;99.90;;;;;;5059157;28;20388;-54
2022/03/09 02:17:26;;;;;;;8.82;5.38;;;5.50;99.90;;;;;;5058486;28;20415;-59
2022/03/09 02:19:52;;;;;;;7.90;5.28;;;5.50;99.90;;;;;;5058002;28;20391;-57
2022/03/09 02:22:37;;;;;;;8.45;5.38;;;5.50;99.90;;;;;;5057656;28;20434;-57
2022/03/09 02:25:11;;;;;;;7.00;4.70;;;5.40;99.90;;;;;;5057415;28;20380;-56
2022/03/09 02:27:37;;;;;;;8.70;5.03;;;5.30;99.90;;;;;;5056981;28;20755;-56
2022/03/09 02:30:04;;;;;;;6.90;4.97;;;5.20;99.90;;;;;;5057226;28;20481;-56
2022/03/09 02:32:29;;;;;;;5.90;4.63;;;5.20;99.90;;;;;;5058136;28;20388;-56
2022/03/09 02:34:56;;;;;;;6.13;4.80;;;5.20;99.90;;;;;;5056816;28;20422;-54
2022/03/09 02:37:21;;;;;;;8.02;5.30;;;5.20;99.90;;;;;;5055588;28;20396;-53
2022/03/09 02:39:47;;;;;;;6.13;5.28;;;5.20;99.90;;;;;;5074268;28;20422;-57
2022/03/09 02:42:13;;;;;;;6.63;4.68;;;5.10;99.90;;;;;;5074867;28;20391;-56
2022/03/09 02:44:39;;;;;;;5.93;4.25;;;5.20;99.90;;;;;;5058624;28;20457;-56
2022/03/09 02:47:05;;;;;;;7.93;4.70;;;5.20;99.90;;;;;;5075834;28;20679;-57
2022/03/09 02:49:31;;;;;;;6.72;4.47;;;5.20;99.90;;;;;;5056665;28;20889;-57
2022/03/09 02:51:56;;;;;;;6.13;4.72;;;5.20;99.90;;;;;;5074388;28;20371;-56
2022/03/09 02:54:22;;;;;;;7.70;4.80;;;5.20;99.90;;;;;;5057766;28;20386;-56
2022/03/09 02:56:47;;;;;;;7.33;5.13;;;5.20;99.90;;;;;;5075166;28;20391;-57
2022/03/09 02:59:13;;;;;;;8.52;5.40;;;5.20;99.90;;;;;;5058086;28;20403;-56
2022/03/09 03:01:39;;;;;;;9.77;4.97;;;5.20;99.90;;;;;;5055906;28;20407;-52
2022/03/09 03:04:04;;;;;;;7.13;5.10;;;5.20;99.90;;;;;;5058460;28;20714;-53
2022/03/09 03:06:30;;;;;;;6.00;4.73;;;5.10;99.90;;;;;;5057826;28;20396;-55
2022/03/09 03:08:55;;;;;;;7.18;5.28;;;5.20;99.90;;;;;;5075203;28;20478;-56
2022/03/09 03:11:21;;;;;;;10.53;4.90;;;5.10;99.90;;;;;;5073562;28;20427;-54
2022/03/09 03:13:49;;;;;;;6.53;4.60;;;5.10;99.90;;;;;;5055502;28;20400;-56
2022/03/09 03:16:15;;;;;;;6.30;4.60;;;5.10;99.90;;;;;;5056157;28;20793;-54
2022/03/09 03:18:40;;;;;;;6.87;4.97;;;5.00;99.90;;;;;;5055138;28;20448;-57
2022/03/09 03:21:06;;;;;;;6.30;4.73;;;5.00;99.90;;;;;;5073645;28;20407;-56
2022/03/09 03:23:33;;;;;;;7.32;4.72;;;5.00;99.90;;;;;;5056117;28;20387;-55
2022/03/09 03:25:59;;;;;;;8.07;4.95;;;4.90;99.90;;;;;;5056609;28;20448;-55
2022/03/09 03:28:25;;;;;;;8.13;5.20;;;4.90;99.90;;;;;;5057822;28;20419;-55
2022/03/09 03:30:51;;;;;;;5.85;4.65;;;4.80;99.90;;;;;;5075277;28;20383;-53
2022/03/09 03:33:17;;;;;;;8.63;4.93;;;4.80;99.90;;;;;;5056407;28;20383;-55
2022/03/09 03:35:44;;;;;;;7.80;5.15;;;4.70;99.90;;;;;;5075169;28;20783;-56
2022/03/09 03:38:10;;;;;;;6.45;4.72;;;4.70;99.90;;;;;;5057525;28;20399;-57
2022/03/09 03:40:36;;;;;;;6.57;5.10;;;4.70;99.90;;;;;;5074372;28;20413;-56
2022/03/09 03:43:02;;;;;;;7.50;4.53;;;4.70;99.90;;;;;;5057006;28;20387;-55
2022/03/09 03:45:28;;;;;;;6.72;4.50;;;4.70;99.90;;;;;;5057719;28;20799;-54
2022/03/09 03:47:54;;;;;;;8.27;5.22;;;4.60;99.90;;;;;;5056867;28;20492;-56
2022/03/09 03:50:19;;;;;;;6.60;4.90;;;4.60;99.90;;;;;;5072029;28;20800;-56
2022/03/09 03:52:45;;;;;;;6.33;4.90;;;4.60;99.90;;;;;;5072019;28;20799;-55
2022/03/09 03:55:11;;;;;;;7.53;5.00;;;4.50;99.90;;;;;;5055709;28;20396;-55
2022/03/09 03:57:36;;;;;;;6.25;4.68;;;4.50;99.90;;;;;;5055088;28;20545;-56
2022/03/09 04:00:04;;;;;;;6.72;4.28;;;4.50;99.90;;;;;;5072655;28;20512;-56
2022/03/09 04:02:30;;;;;;;6.28;4.50;;;4.50;99.90;;;;;;5071917;28;20375;-54
2022/03/09 04:04:55;;;;;;;6.20;4.68;;;4.50;99.90;;;;;;5068883;28;20436;-57
2022/03/09 04:07:21;;;;;;;8.10;4.87;;;4.50;99.90;;;;;;5052536;28;20380;-54
2022/03/09 04:09:46;;;;;;;6.35;4.75;;;4.50;99.90;;;;;;5053282;28;20562;-55
2022/03/09 04:12:12;;;;;;;7.53;4.93;;;4.50;99.90;;;;;;5053301;28;20508;-55
2022/03/09 04:14:37;;;;;;;7.55;4.75;;;4.40;99.90;;;;;;5072223;28;20388;-55
2022/03/09 04:17:03;;;;;;;7.53;4.57;;;4.40;99.90;;;;;;5054029;28;20814;-55
2022/03/09 04:19:29;;;;;;;7.00;4.70;;;4.40;99.90;;;;;;5055639;28;20410;-56
2022/03/09 04:21:55;;;;;;;6.50;4.47;;;4.30;99.90;;;;;;5054249;28;20384;-54
2022/03/09 04:24:20;;;;;;;6.57;4.90;;;4.20;99.90;;;;;;5069180;28;20441;-52
2022/03/09 04:26:47;;;;;;;6.30;4.50;;;4.20;99.90;;;;;;5069906;28;20482;-56
2022/03/09 04:29:12;;;;;;;6.53;4.45;;;4.20;99.90;;;;;;5052066;28;20502;-55
2022/03/09 04:31:38;;;;;;;5.73;4.60;;;4.20;99.90;;;;;;5053695;28;20728;-57
2022/03/09 04:34:04;;;;;;;6.97;4.70;;;4.20;99.90;;;;;;5054216;28;20423;-55
2022/03/09 04:36:29;;;;;;;6.30;4.55;;;4.20;99.90;;;;;;5052861;28;20398;-55
2022/03/09 04:38:55;;;;;;;5.60;4.45;;;4.20;99.90;;;;;;5052992;28;20742;-55
2022/03/09 04:41:21;;;;;;;6.25;4.82;;;4.20;99.90;;;;;;5053839;28;20404;-55
2022/03/09 04:43:47;;;;;;;7.63;5.25;;;4.10;99.90;;;;;;5071394;28;20388;-57
2022/03/09 04:46:12;;;;;;;7.28;4.70;;;4.10;99.90;;;;;;5053467;28;20671;-56
2022/03/09 04:48:38;;;;;;;5.33;4.53;;;4.00;99.90;;;;;;5052019;28;20386;-56
2022/03/09 04:51:04;;;;;;;5.67;4.40;;;4.00;99.90;;;;;;5053331;28;20388;-56
2022/03/09 04:53:30;;;;;;;6.93;4.70;;;4.10;99.90;;;;;;5070514;28;20920;-54
2022/03/09 04:56:05;;;;;;;7.57;5.22;;;4.10;99.90;;;;;;5053148;28;20468;-53
2022/03/09 04:58:31;;;;;;;7.45;4.80;;;4.10;99.90;;;;;;5051685;28;20884;-54
2022/03/09 05:00:57;;;;;;;6.88;4.90;;;4.10;99.90;;;;;;5068680;28;20407;-55
2022/03/09 05:03:22;;;;;;;9.00;4.90;;;4.10;99.90;;;;;;5053063;28;20456;-52
2022/03/09 05:05:48;;;;;;;5.35;4.32;;;4.00;99.90;;;;;;5070165;28;20389;-55
2022/03/09 05:08:13;;;;;;;6.70;5.00;;;4.00;99.90;;;;;;5052608;28;20461;-57
2022/03/09 05:10:39;;;;;;;7.63;5.07;;;3.90;99.90;;;;;;5051410;28;20662;-56
2022/03/09 05:13:05;;;;;;;6.47;5.05;;;3.90;99.90;;;;;;5067734;28;20403;-54
2022/03/09 05:15:31;;;;;;;7.78;5.18;;;3.90;99.90;;;;;;5048845;28;20410;-55
2022/03/09 05:17:57;;;;;;;7.00;4.93;;;3.90;99.90;;;;;;5050928;28;20782;-55
2022/03/09 05:20:23;;;;;;;6.93;4.87;;;3.80;99.90;;;;;;5050188;28;20795;-55
2022/03/09 05:22:50;;;;;;;8.52;4.80;;;3.80;99.90;;;;;;5049316;28;20783;-56
2022/03/09 05:25:16;;;;;;;7.72;4.57;;;3.80;99.90;;;;;;5050492;28;20746;-56
2022/03/09 05:27:41;;;;;;;7.60;4.80;;;3.80;99.90;;;;;;5051170;28;20387;-53
2022/03/09 05:30:09;;;;;;;7.68;4.75;;;3.80;99.90;;;;;;5049954;28;20480;-55
2022/03/09 05:32:35;;;;;;;6.45;4.85;;;3.90;99.90;;;;;;5071068;28;20430;-56
2022/03/09 05:35:02;;;;;;;8.20;5.38;;;3.80;99.90;;;;;;5052269;28;20671;-57
2022/03/09 05:37:28;;;;;;;8.98;4.88;;;3.80;99.90;;;;;;5051548;28;20562;-55
2022/03/09 05:39:55;;;;;;;8.43;4.88;;;3.80;99.90;;;;;;5068083;28;20405;-55
2022/03/09 05:42:20;;;;;;;7.32;4.88;;;3.80;99.90;;;;;;5049412;28;20449;-53
2022/03/09 05:44:46;;;;;;;7.20;5.10;;;3.70;99.90;;;;;;5049246;28;20379;-54
2022/03/09 05:47:12;;;;;;;13.60;5.00;;;3.70;99.90;;;;;;5048299;28;20896;-54
2022/03/09 05:49:38;;;;;;;7.05;4.82;;;3.70;99.90;;;;;;5048905;28;20799;-54
2022/03/09 05:52:04;;;;;;;6.47;4.73;;;3.60;99.90;;;;;;5068479;28;20726;-55
2022/03/09 05:54:30;;;;;;;7.95;4.88;;;3.70;99.90;;;;;;5051547;28;20468;-55
2022/03/09 05:56:55;;;;;;;5.57;4.65;;;3.70;99.90;;;;;;5050733;28;20395;-55
2022/03/09 05:59:21;;;;;;;6.18;4.53;;;3.70;99.90;;;;;;5051895;28;20394;-54
2022/03/09 06:01:46;;;;;;;7.10;5.00;;;3.70;99.90;;;;;;5068592;28;20415;-55
2022/03/09 06:04:12;;;;;;;6.93;4.63;;;3.70;99.90;;;;;;5050822;28;20419;-56
2022/03/09 06:06:37;;;;;;;6.22;5.00;;;3.70;99.90;;;;;;5048491;28;20396;-57
2022/03/09 06:09:03;;;;;;;6.30;4.60;;;3.70;99.90;;;;;;5048460;28;20390;-56
2022/03/09 06:11:29;;;;;;;7.50;4.83;;;3.70;99.90;;;;;;5051013;28;20422;-56
2022/03/09 06:13:54;;;;;;;7.70;4.97;;;3.70;99.90;;;;;;5050433;28;20684;-54
2022/03/09 06:16:20;;;;;;;6.73;5.20;;;3.70;99.90;;;;;;5069412;28;20429;-55
2022/03/09 06:18:46;;;;;;;6.85;4.60;;;3.70;99.90;;;;;;5049048;28;20383;-53
2022/03/09 06:21:15;;;;;;;7.63;4.82;;;3.70;99.90;;;;;;5045221;28;20502;-53
2022/03/09 06:23:41;;;;;;;7.88;5.15;;;3.70;99.90;;;;;;5064264;28;20669;-56
2022/03/09 06:26:07;;;;;;;6.93;5.10;;;3.70;99.90;;;;;;5048770;28;20554;-53
2022/03/09 06:28:33;;;;;;;7.47;4.90;;;3.80;99.90;;;;;;5065002;28;20722;-56
2022/03/09 06:30:58;;;;;;;5.97;4.60;;;3.70;99.90;;;;;;5047363;28;20380;-56
2022/03/09 06:33:25;;;;;;;6.07;4.53;;;3.70;99.90;;;;;;5047670;28;20390;-57
2022/03/09 06:35:50;;;;;;;5.97;4.50;;;3.70;99.90;;;;;;5049294;28;20887;-56
2022/03/09 06:38:16;;;;;;;6.47;4.50;;;3.70;99.90;;;;;;5048697;28;20511;-55
2022/03/09 06:40:42;;;;;;;7.20;5.00;;;3.80;99.90;;;;;;5051569;28;20506;-56
2022/03/09 06:43:08;;;;;;;6.40;4.90;;;3.70;99.90;;;;;;5050469;28;20750;-56
2022/03/09 06:45:35;;;;;;;7.50;5.30;;;3.70;99.90;;;;;;5067324;28;20400;-55
2022/03/09 06:48:01;;;;;;;8.23;5.07;;;3.80;99.90;;;;;;5047623;28;20383;-57
2022/03/09 06:50:27;;;;;;;6.88;5.05;;;3.70;99.90;;;;;;5065930;28;20457;-55
2022/03/09 06:52:53;;;;;;;8.57;5.05;;;3.70;99.90;;;;;;5065734;28;20468;-57
2022/03/09 06:55:18;;;;;;;7.50;5.10;;;3.70;99.90;;;;;;5064902;28;20857;-57
2022/03/09 06:57:44;;;;;;;6.97;5.10;;;3.80;99.90;;;;;;5066744;28;20386;-57
2022/03/09 07:00:12;;;;;;;7.15;4.93;;;3.80;99.90;;;;;;5045583;28;20400;-54
2022/03/09 07:02:38;;;;;;;6.50;4.50;;;3.80;99.90;;;;;;5062688;28;20372;-53
2022/03/09 07:05:05;;;;;;;6.97;5.10;;;3.80;99.90;;;;;;5045850;28;20690;-57
2022/03/09 07:07:32;;;;;;;7.85;4.70;;;3.90;99.90;;;;;;5047261;28;20384;-56
2022/03/09 07:09:57;;;;;;;6.07;4.55;;;3.80;99.90;;;;;;5048938;28;20445;-54
2022/03/09 07:12:23;;;;;;;5.25;4.20;;;3.90;99.90;;;;;;5048522;28;20399;-55
2022/03/09 07:14:48;;;;;;;9.20;5.10;;;3.90;99.90;;;;;;5049837;28;20848;-57
2022/03/09 07:17:14;;;;;;;6.00;5.13;;;4.00;99.90;;;;;;5050512;28;20430;-56
2022/03/09 07:19:39;;;;;;;6.32;4.80;;;4.00;99.90;;;;;;5069231;28;20384;-55
2022/03/09 07:22:06;;;;;;;7.10;5.43;;;4.10;99.90;;;;;;5048962;28;20392;-55
2022/03/09 07:24:32;;;;;;;12.20;5.50;;;4.10;99.90;;;;;;5048527;28;20527;-55
2022/03/09 07:26:58;;;;;;;6.03;5.00;;;4.10;99.90;;;;;;5067436;28;20387;-57
2022/03/09 07:29:24;;;;;;;7.72;5.10;;;4.10;99.90;;;;;;5049613;28;20565;-57
2022/03/09 07:31:50;;;;;;;7.23;5.00;;;4.20;99.90;;;;;;5066126;28;20618;-57
2022/03/09 07:34:15;;;;;;;7.30;4.88;;;4.10;99.90;;;;;;5050015;28;20696;-57
2022/03/09 07:36:41;;;;;;;9.17;5.20;;;4.20;99.90;;;;;;5046719;28;20384;-57
2022/03/09 07:39:07;;;;;;;7.23;5.07;;;4.20;99.90;;;;;;5063340;28;20453;-52
2022/03/09 07:41:32;;;;;;;8.03;4.93;;;4.30;99.90;;;;;;5044125;28;20528;-52
2022/03/09 07:43:58;;;;;;;6.95;4.85;;;4.30;99.90;;;;;;5045280;28;20675;-58
2022/03/09 07:46:23;;;;;;;6.67;4.53;;;4.40;99.90;;;;;;5045324;28;20756;-56
2022/03/09 07:48:49;;;;;;;8.73;5.33;;;4.50;99.90;;;;;;5043346;28;20380;-55
2022/03/09 07:51:14;;;;;;;5.22;4.68;;;4.50;99.90;;;;;;5062281;28;20613;-57
2022/03/09 07:53:42;;;;;;;6.43;5.03;;;4.50;99.90;;;;;;5060252;28;20427;-57
2022/03/09 07:56:10;;;;;;;7.63;4.78;;;4.50;99.90;;;;;;5041850;28;20538;-57
2022/03/09 07:58:36;;;;;;;7.05;4.90;;;4.60;99.90;;;;;;5061826;28;20415;-55
2022/03/09 08:01:02;;;;;;;6.15;4.57;;;4.60;99.90;;;;;;5044017;28;20492;-56
2022/03/09 08:03:27;;;;;;;4.97;4.23;;;4.70;99.90;;;;;;5044890;28;20387;-56
2022/03/09 08:05:52;;;;;;;5.53;4.33;;;4.70;99.90;;;;;;5043639;28;20655;-51
2022/03/09 08:08:18;;;;;;;7.93;5.07;;;4.80;99.90;;;;;;5045556;28;20449;-57
2022/03/09 08:10:44;;;;;;;4.97;4.43;;;4.80;99.90;;;;;;5064142;28;20430;-57
2022/03/09 08:13:09;;;;;;;6.30;4.77;;;4.80;99.90;;;;;;5046086;28;20464;-56
2022/03/09 08:15:37;;;;;;;4.23;3.83;;;4.90;99.90;;;;;;5045820;28;20559;-56
2022/03/09 08:18:03;;;;;;;5.15;4.50;;;4.90;99.90;;;;;;5063549;28;20380;-57
2022/03/09 08:20:28;;;;;;;6.03;4.03;;;5.00;99.90;;;;;;5048664;28;20396;-56
2022/03/09 08:22:54;;;;;;;5.55;4.30;;;5.10;99.90;;;;;;5046697;28;20395;-57
2022/03/09 08:25:20;;;;;;;8.40;4.50;;;5.10;99.90;;;;;;5040646;28;20832;-54
2022/03/09 08:27:45;;;;;;;5.70;4.27;;;5.10;99.90;;;;;;5039525;28;20391;-51
2022/03/09 08:30:11;;;;;;;5.77;4.13;;;5.20;99.90;;;;;;5045261;28;20480;-56
2022/03/09 08:32:37;;;;;;;6.07;4.38;;;5.20;99.90;;;;;;5061514;28;20380;-54
2022/03/09 08:35:03;;;;;;;12.30;5.40;;;5.20;99.90;;;;;;5044234;28;20410;-54
2022/03/09 08:37:29;;;;;;;6.22;4.20;;;5.20;99.90;;;;;;5063398;28;20383;-55
2022/03/09 08:39:54;;;;;;;6.97;4.50;;;5.30;99.90;;;;;;5060990;28;20410;-54
2022/03/09 08:42:20;;;;;;;8.13;4.50;;;5.40;99.90;;;;;;5042328;28;20384;-57
2022/03/09 08:44:45;;;;;;;8.45;5.30;;;5.40;99.90;;;;;;5058822;28;20698;-54
2022/03/09 08:47:11;;;;;;;6.23;4.27;;;5.40;99.90;;;;;;5040005;28;20384;-53
2022/03/09 08:49:39;;;;;;;6.70;4.30;;;5.50;99.90;;;;;;5043863;28;20474;-56
2022/03/09 08:52:06;;;;;;;6.97;4.70;;;5.50;99.90;;;;;;5045078;28;20660;-55
2022/03/09 08:54:32;;;;;;;7.50;4.40;;;5.50;99.90;;;;;;5047179;28;20602;-57
2022/03/09 08:56:57;;;;;;;7.45;4.00;;;5.60;99.90;;;;;;5047424;28;20491;-54
2022/03/09 08:59:23;;;;;;;8.93;4.73;;;5.70;99.90;;;;;;5049082;28;20399;-55
2022/03/09 09:01:49;;;;;;;8.47;4.40;;;5.80;99.90;;;;;;5063662;28;20767;-57
2022/03/09 09:04:16;;;;;;;8.73;4.23;;;5.80;99.90;;;;;;5047951;28;20761;-57
2022/03/09 09:06:42;;;;;;;4.80;3.65;;;5.80;99.90;;;;;;5047287;28;20379;-56
2022/03/09 09:09:08;;;;;;;4.50;3.33;;;5.90;99.90;;;;;;5065973;28;20387;-55
2022/03/09 09:11:34;;;;;;;4.43;3.60;;;6.00;99.90;;;;;;5063597;28;20620;-55
2022/03/09 09:13:59;;;;;;;5.43;3.70;;;6.00;99.90;;;;;;5043982;28;20815;-57
2022/03/09 09:16:25;;;;;;;5.20;3.70;;;6.10;99.90;;;;;;5044905;28;20379;-55
2022/03/09 09:18:50;;;;;;;9.53;4.00;;;6.10;99.90;;;;;;5061887;28;20403;-55
2022/03/09 09:21:16;;;;;;;5.15;3.95;;;6.10;99.90;;;;;;5044890;28;20664;-56
2022/03/09 09:23:41;;;;;;;6.90;4.33;;;6.20;99.90;;;;;;5044221;28;20410;-56
2022/03/09 09:26:07;;;;;;;5.67;4.20;;;6.20;99.90;;;;;;5042369;28;20731;-51
2022/03/09 09:28:32;;;;;;;7.93;4.60;;;6.30;99.90;;;;;;5057288;28;20457;-55
2022/03/09 09:30:58;;;;;;;5.43;3.93;;;6.30;99.90;;;;;;5041763;28;20607;-55
2022/03/09 09:33:23;;;;;;;5.27;4.30;;;6.40;99.90;;;;;;5043863;28;20418;-55
2022/03/09 09:35:49;;;;;;;8.60;5.32;;;6.50;99.90;;;;;;5043010;28;20395;-53
2022/03/09 09:38:16;;;;;;;7.63;4.82;;;6.60;99.90;;;;;;5044619;28;20380;-55
2022/03/09 09:40:44;;;;;;;8.73;4.63;;;6.60;99.90;;;;;;5062307;28;20601;-54
2022/03/09 09:43:12;;;;;;;7.18;4.45;;;6.50;99.90;;;;;;5062334;28;20648;-57
2022/03/09 09:45:39;;;;;;;8.95;4.97;;;6.60;99.90;;;;;;5044416;28;20406;-54
2022/03/09 09:48:06;;;;;;;5.93;4.45;;;6.60;99.90;;;;;;5044799;28;20511;-55
2022/03/09 09:50:32;;;;;;;5.95;4.50;;;6.60;99.90;;;;;;5062182;28;20478;-55
2022/03/09 09:52:58;;;;;;;5.18;4.30;;;6.70;99.90;;;;;;5043321;28;20498;-56
2022/03/09 09:55:27;;;;;;;7.75;4.80;;;6.80;99.90;;;;;;5045170;28;20504;-55
2022/03/09 09:57:55;;;;;;;6.90;4.50;;;6.90;99.90;;;;;;5043707;28;20456;-54
2022/03/09 10:00:20;;;;;;;6.20;4.55;;;6.90;99.90;;;;;;5041431;28;20659;-56
2022/03/09 10:02:46;;;;;;;8.37;4.80;;;7.00;99.90;;;;;;5045506;28;20657;-55
2022/03/09 10:05:14;;;;;;;4.57;4.10;;;7.00;99.90;;;;;;5044741;28;20483;-55
2022/03/09 10:08:04;;;;;;;5.27;4.20;;;7.10;99.90;;;;;;5041850;28;20918;-55
2022/03/09 10:10:31;;;;;;;9.30;4.78;;;7.10;99.90;;;;;;5048099;28;20391;-58
2022/03/09 10:13:18;;;;;;;5.95;4.30;;;7.30;99.90;;;;;;5049028;28;20387;-57
2022/03/09 10:16:15;;;;;;;6.63;4.57;;;7.40;99.90;;;;;;5049064;28;20384;-56
2022/03/09 10:18:56;;;;;;;8.65;5.10;;;7.50;99.90;;;;;;5049752;28;20376;-56
2022/03/09 10:21:26;;;;;;;9.05;4.78;;;7.60;99.90;;;;;;5051027;28;20400;-55
2022/03/09 10:24:01;;;;;;;7.28;4.90;;;7.60;99.90;;;;;;5050469;28;20388;-52
2022/03/09 10:26:31;;;;;;;5.63;4.28;;;7.70;99.90;;;;;;5051129;28;20410;-54
2022/03/09 10:28:59;;;;;;;5.72;4.50;;;7.70;99.90;;;;;;5068934;28;20399;-55
2022/03/09 10:31:45;;;;;;;6.72;4.53;;;7.80;99.90;;;;;;5053713;28;20387;-56
2022/03/09 10:34:23;;;;;;;8.27;5.38;;;7.90;99.90;;;;;;5054072;28;21021;-54
2022/03/09 10:37:02;;;;;;;7.60;4.90;;;8.10;99.90;;;;;;5048446;28;20395;-53
2022/03/09 10:39:34;;;;;;;8.73;4.97;;;8.30;99.90;;;;;;5047222;28;20693;-55
2022/03/09 10:42:02;;;;;;;5.53;4.05;;;8.70;99.90;;;;;;5047542;28;20676;-57
2022/03/09 10:44:46;;;;;;;5.55;4.57;;;9.10;99.90;;;;;;5048550;28;20376;-53
2022/03/09 10:47:28;;;;;;;6.05;5.00;;;9.50;99.90;;;;;;5047759;28;20402;-54
2022/03/09 10:49:53;;;;;;;6.50;4.95;;;9.80;99.90;;;;;;5062132;28;20372;-53
2022/03/09 10:52:18;;;;;;;5.07;4.40;;;10.20;99.90;;;;;;5059164;28;20383;-54
2022/03/09 10:54:44;;;;;;;6.50;4.65;;;10.40;99.90;;;;;;5038656;28;20629;-54
2022/03/09 10:57:11;;;;;;;4.63;3.80;;;10.60;99.90;;;;;;5041955;28;20407;-54
2022/03/09 10:59:45;;;;;;;6.95;4.75;;;10.90;99.90;;;;;;5042275;28;20522;-56
2022/03/09 11:02:10;;;;;;;6.47;4.55;;;11.10;99.90;;;;;;5060828;28;20467;-55
2022/03/09 11:04:37;;;;;;;5.67;4.80;;;11.30;99.90;;;;;;5043098;28;20587;-55
2022/03/09 11:07:04;;;;;;;5.95;4.63;;;11.40;99.90;;;;;;5041142;28;20375;-56
2022/03/09 11:09:30;;;;;;;7.07;4.63;;;11.60;99.90;;;;;;5055399;28;20376;-56
2022/03/09 11:11:56;;;;;;;4.90;4.32;;;11.80;99.90;;;;;;5066746;28;20400;-53
2022/03/09 11:14:26;;;;;;;6.37;4.43;;;12.00;99.90;;;;;;5070106;28;20397;-55
2022/03/09 11:16:53;;;;;;;5.68;4.90;;;12.10;99.90;;;;;;5087786;28;20392;-56
2022/03/09 11:19:19;;;;;;;5.47;4.78;;;12.00;99.90;;;;;;5069959;28;20386;-52
2022/03/09 11:21:45;;;;;;;6.30;4.68;;;12.00;99.90;;;;;;5072442;28;20398;-53
2022/03/09 11:24:14;;;;;;;5.70;5.00;;;12.20;99.70;;;;;;5067870;28;20422;-54
2022/03/09 11:26:53;;;;;;;6.85;5.30;;;12.40;99.80;;;;;;5071948;28;20400;-57
2022/03/09 11:29:35;;;;;;;5.93;4.60;;;12.10;98.50;;;;;;5070827;28;20410;-55
2022/03/09 11:32:03;;;;;;;7.57;5.22;;;12.50;99.70;;;;;;5088025;28;20390;-53
2022/03/09 11:34:42;;;;;;;6.68;5.20;;;12.60;99.20;;;;;;5073126;28;20439;-56
2022/03/09 11:37:09;;;;;;;6.25;4.85;;;12.60;98.60;;;;;;5072092;28;20397;-57
2022/03/09 11:39:37;;;;;;;4.93;4.43;;;12.70;98.60;;;;;;5069431;28;20390;-57
2022/03/09 11:42:21;;;;;;;5.18;4.25;;;13.00;98.40;;;;;;5070775;28;20406;-53
2022/03/09 11:44:53;;;;;;;6.20;4.27;;;13.20;97.40;;;;;;5089469;28;21235;-55
2022/03/09 11:47:20;;;;;;;9.68;5.13;;;13.30;96.20;;;;;;5073628;28;20462;-53
2022/03/09 11:49:49;;;;;;;5.47;4.53;;;13.30;96.00;;;;;;5073615;28;20741;-56
2022/03/09 11:52:23;;;;;;;6.70;5.00;;;13.20;95.40;;;;;;5073112;28;20393;-57
2022/03/09 11:55:01;;;;;;;9.15;4.97;;;13.10;95.20;;;;;;5073491;28;20390;-56
2022/03/09 11:57:45;;;;;;;6.10;4.63;;;13.00;95.10;;;;;;5073802;28;20407;-54
2022/03/09 12:00:17;;;;;;;4.25;3.78;;;13.30;94.90;;;;;;5089476;28;20393;-55
2022/03/09 12:02:56;;;;;;;6.07;4.90;;;13.50;94.60;;;;;;5071042;28;20436;-55
2022/03/09 12:05:28;;;;;;;5.13;4.37;;;13.60;94.30;;;;;;5072582;28;20388;-56
2022/03/09 12:07:56;;;;;;;6.75;4.70;;;14.10;94.90;;;;;;5091013;28;20459;-54
2022/03/09 12:10:49;;;;;;;8.85;5.07;;;14.10;93.00;;;;;;5091575;28;20929;-54
2022/03/09 12:13:46;;;;;;;7.25;4.88;;;14.20;93.20;;;;;;5058864;28;20417;-54
2022/03/09 12:16:24;;;;;;;6.65;4.55;;;14.40;91.90;;;;;;5072790;28;20382;-54
2022/03/09 12:19:04;;;;;;;5.00;4.45;;;14.50;90.20;;;;;;5073555;28;20382;-57
2022/03/09 12:21:35;;;;;;;5.00;4.17;;;14.70;90.90;;;;;;5070848;28;20500;-55
2022/03/09 12:24:13;;;;;;;5.75;4.82;;;15.10;91.50;;;;;;5069965;28;20428;-51
2022/03/09 12:26:54;;;;;;;5.15;4.22;;;14.80;89.70;;;;;;5068628;28;20394;-54
2022/03/09 12:29:32;;;;;;;4.72;4.10;;;15.00;90.80;;;;;;5086046;28;20409;-54
2022/03/09 12:32:06;;;;;;;5.43;4.00;;;15.50;90.90;;;;;;5070473;28;20393;-54
2022/03/09 12:34:37;;;;;;;5.18;4.13;;;15.80;90.40;;;;;;5087540;28;21072;-56
2022/03/09 12:37:06;;;;;;;4.63;4.18;;;16.10;89.60;;;;;;5071209;28;20405;-57
2022/03/09 12:39:34;;;;;;;4.43;3.97;;;16.40;87.50;;;;;;5072341;28;20397;-57
2022/03/09 12:42:02;;;;;;;4.60;4.00;;;16.50;81.30;;;;;;5072648;28;20397;-52
2022/03/09 12:44:31;;;;;;;7.50;4.80;;;16.60;79.90;;;;;;5073442;28;20812;-55
2022/03/09 12:47:03;;;;;;;7.28;4.50;;;16.80;78.20;;;;;;5089715;28;20386;-54
2022/03/09 12:49:31;;;;;;;4.10;3.67;;;16.40;77.70;;;;;;5088484;28;20446;-57
2022/03/09 12:52:01;;;;;;;4.38;3.63;;;16.60;79.70;;;;;;5073298;28;20416;-56
2022/03/09 12:54:38;;;;;;;6.28;4.32;;;17.10;82.10;;;;;;5072202;28;20394;-56
2022/03/09 12:57:28;;;;;;;5.15;4.38;;;17.00;83.70;;;;;;5090692;28;20381;-50